createdAt,value
2019-03-13T00:00:09.496Z,8.60
2019-03-13T00:03:17.952Z,8.70
2019-03-13T00:06:37.308Z,8.60
2019-03-13T00:09:56.161Z,8.70
2019-03-13T00:13:04.990Z,8.70
2019-03-13T00:16:13.909Z,8.60
2019-03-13T00:19:22.573Z,8.20
2019-03-13T00:22:31.180Z,7.90
2019-03-13T00:25:39.689Z,7.60
2019-03-13T00:28:48.565Z,7.30
2019-03-13T00:31:59.481Z,7.10
2019-03-13T00:35:07.469Z,6.90
2019-03-13T00:38:16.230Z,6.80
2019-03-13T00:41:24.911Z,6.60
2019-03-13T00:44:33.570Z,6.50
2019-03-13T00:47:52.408Z,6.50
2019-03-13T00:51:00.979Z,6.50
2019-03-13T00:54:10.691Z,6.50
2019-03-13T00:57:19.349Z,6.50
2019-03-13T01:00:51.882Z,6.40
2019-03-13T01:04:25.072Z,6.50
2019-03-13T01:07:33.451Z,6.50
2019-03-13T01:10:41.924Z,6.50
2019-03-13T01:13:50.523Z,6.50
2019-03-13T01:17:09.625Z,6.50
2019-03-13T01:20:18.203Z,6.50
2019-03-13T01:23:26.791Z,6.50
2019-03-13T01:26:35.409Z,6.50
2019-03-13T01:29:44.041Z,6.50
2019-03-13T01:32:55.368Z,6.50
2019-03-13T01:36:04.473Z,6.50
2019-03-13T01:39:23.225Z,6.40
2019-03-13T01:42:31.807Z,6.40
2019-03-13T01:45:40.382Z,6.50
2019-03-13T01:48:48.870Z,6.40
2019-03-13T01:51:57.435Z,6.40
2019-03-13T01:55:16.180Z,6.50
2019-03-13T01:58:24.695Z,6.50
2019-03-13T02:01:33.453Z,6.50
2019-03-13T02:04:42.032Z,6.40
2019-03-13T02:07:50.650Z,6.40
2019-03-13T02:10:59.280Z,6.40
2019-03-13T02:14:07.984Z,6.40
2019-03-13T02:17:26.865Z,6.40
2019-03-13T02:20:35.467Z,6.50
2019-03-13T02:23:44.048Z,6.50
2019-03-13T02:26:52.624Z,6.50
2019-03-13T02:30:01.231Z,6.50
2019-03-13T02:33:09.878Z,6.50
2019-03-13T02:36:18.527Z,6.50
2019-03-13T02:39:27.184Z,6.50
2019-03-13T02:42:46.056Z,6.60
2019-03-13T02:45:54.732Z,6.60
2019-03-13T02:49:03.352Z,6.60
2019-03-13T02:52:11.982Z,6.60
2019-03-13T02:55:20.473Z,6.60
2019-03-13T02:58:29.117Z,6.60
2019-03-13T03:02:02.107Z,6.60
2019-03-13T03:05:11.033Z,6.60
2019-03-13T03:08:19.814Z,6.60
2019-03-13T03:11:29.918Z,6.60
2019-03-13T03:14:38.172Z,6.50
2019-03-13T03:17:47.044Z,6.50
2019-03-13T03:20:55.838Z,6.60
2019-03-13T03:24:04.397Z,6.60
2019-03-13T03:27:23.297Z,6.60
2019-03-13T03:30:31.963Z,6.60
2019-03-13T03:33:40.526Z,6.70
2019-03-13T03:36:49.163Z,6.70
2019-03-13T03:39:57.662Z,6.70
2019-03-13T03:43:06.235Z,6.70
2019-03-13T03:46:25.068Z,6.70
2019-03-13T03:49:33.535Z,6.80
2019-03-13T03:52:42.132Z,6.80
2019-03-13T03:55:51.121Z,6.80
2019-03-13T03:58:59.971Z,6.90
2019-03-13T04:02:08.500Z,6.90
2019-03-13T04:05:17.202Z,6.90
2019-03-13T04:08:25.936Z,6.90
2019-03-13T04:11:34.430Z,6.90
2019-03-13T04:14:43.099Z,6.90
2019-03-13T04:18:01.961Z,6.90
2019-03-13T04:21:10.443Z,6.90
2019-03-13T04:24:19.001Z,6.90
2019-03-13T04:27:27.504Z,6.90
2019-03-13T04:30:36.069Z,6.90
2019-03-13T04:33:54.979Z,6.90
2019-03-13T04:37:03.610Z,6.90
2019-03-13T04:40:12.435Z,6.80
2019-03-13T04:43:21.074Z,6.80
2019-03-13T04:46:29.768Z,6.80
2019-03-13T04:49:38.295Z,6.80
2019-03-13T04:52:46.873Z,6.80
2019-03-13T04:55:55.500Z,6.80
2019-03-13T04:59:04.079Z,6.80
2019-03-13T05:02:23.100Z,6.90
2019-03-13T05:06:02.554Z,6.90
2019-03-13T05:09:14.449Z,6.90
2019-03-13T05:12:22.928Z,6.90
2019-03-13T05:15:31.246Z,6.90
2019-03-13T05:18:39.798Z,6.90
2019-03-13T05:21:48.351Z,6.90
2019-03-13T05:25:07.513Z,7.00
2019-03-13T05:28:16.163Z,6.90
2019-03-13T05:31:24.724Z,7.00
2019-03-13T05:34:33.211Z,7.00
2019-03-13T05:37:41.782Z,7.00
2019-03-13T05:40:50.352Z,7.00
2019-03-13T05:43:59.119Z,7.00
2019-03-13T05:47:07.787Z,7.10
2019-03-13T05:50:26.702Z,7.00
2019-03-13T05:53:35.391Z,7.00
2019-03-13T05:56:43.967Z,7.00
2019-03-13T05:59:52.549Z,7.10
2019-03-13T06:03:01.005Z,7.10
2019-03-13T06:06:09.816Z,7.10
2019-03-13T06:09:20.204Z,7.10
2019-03-13T06:12:28.759Z,7.10
2019-03-13T06:15:47.653Z,7.10
2019-03-13T06:18:56.277Z,7.20
2019-03-13T06:22:04.863Z,7.20
2019-03-13T06:25:13.625Z,7.20
2019-03-13T06:28:41.352Z,7.20
2019-03-13T06:31:49.933Z,7.20
2019-03-13T06:34:58.541Z,7.30
2019-03-13T06:38:18.508Z,7.40
2019-03-13T06:41:27.194Z,7.40
2019-03-13T06:44:37.058Z,7.30
2019-03-13T06:47:55.948Z,7.30
2019-03-13T06:51:04.632Z,7.40
2019-03-13T06:54:13.234Z,7.40
2019-03-13T06:57:20.723Z,7.40
2019-03-13T07:00:52.769Z,7.40
2019-03-13T07:04:21.260Z,7.40
2019-03-13T07:08:07.239Z,7.40
2019-03-13T07:11:40.929Z,7.50
2019-03-13T07:14:59.615Z,7.50
2019-03-13T07:18:25.316Z,7.50
2019-03-13T07:21:55.464Z,7.50
2019-03-13T07:25:32.031Z,7.50
2019-03-13T07:28:46.898Z,7.50
2019-03-13T07:32:17.427Z,7.60
2019-03-13T07:35:34.964Z,7.60
2019-03-13T07:39:02.463Z,7.60
2019-03-13T07:42:23.214Z,7.60
2019-03-13T07:45:41.682Z,7.60
2019-03-13T07:49:10.831Z,7.60
2019-03-13T07:52:56.555Z,7.60
2019-03-13T07:56:18.398Z,7.70
2019-03-13T08:00:01.082Z,7.70
2019-03-13T08:03:31.654Z,7.70
2019-03-13T08:06:57.809Z,7.70
2019-03-13T08:10:42.253Z,7.80
2019-03-13T08:14:16.347Z,7.90
2019-03-13T08:17:30.628Z,7.90
2019-03-13T08:21:23.456Z,7.80
2019-03-13T08:24:44.296Z,7.90
2019-03-13T08:28:10.483Z,7.90
2019-03-13T08:31:44.117Z,7.90
2019-03-13T08:35:28.247Z,7.90
2019-03-13T08:38:46.339Z,7.90
2019-03-13T08:42:04.590Z,8.00
2019-03-13T08:45:43.670Z,8.00
2019-03-13T08:49:12.022Z,8.00
2019-03-13T08:52:26.806Z,8.10
2019-03-13T08:55:43.380Z,8.10
2019-03-13T08:59:13.919Z,8.10
2019-03-13T09:02:56.801Z,8.10
2019-03-13T09:06:50.646Z,8.10
2019-03-13T09:10:33.222Z,8.10
2019-03-13T09:13:56.173Z,8.10
2019-03-13T09:17:22.503Z,8.20
2019-03-13T09:20:49.980Z,8.20
2019-03-13T09:24:28.282Z,8.30
2019-03-13T09:28:23.070Z,8.30
2019-03-13T09:31:50.540Z,8.30
2019-03-13T09:35:16.910Z,8.30
2019-03-13T09:38:45.542Z,8.30
2019-03-13T09:42:11.865Z,8.30
2019-03-13T09:45:51.410Z,8.40
2019-03-13T09:49:09.993Z,8.40
2019-03-13T09:52:37.528Z,8.50
2019-03-13T09:56:02.670Z,8.60
2019-03-13T09:59:42.695Z,8.50
2019-03-13T10:02:53.678Z,8.50
2019-03-13T10:06:27.166Z,8.50
2019-03-13T10:10:12.789Z,8.50
2019-03-13T10:13:39.014Z,8.50
2019-03-13T10:17:10.757Z,8.60
2019-03-13T10:20:37.545Z,8.60
2019-03-13T10:24:05.024Z,8.50
2019-03-13T10:27:31.131Z,8.50
2019-03-13T10:30:50.223Z,8.50
2019-03-13T10:34:05.280Z,8.50
2019-03-13T10:37:52.536Z,8.60
2019-03-13T10:41:23.015Z,8.50
2019-03-13T10:44:53.753Z,8.60
2019-03-13T10:48:12.645Z,8.50
2019-03-13T10:51:58.669Z,8.50
2019-03-13T10:55:31.127Z,8.40
2019-03-13T10:59:25.993Z,8.30
2019-03-13T11:02:41.161Z,8.30
2019-03-13T11:06:08.431Z,8.20
2019-03-13T11:09:42.428Z,8.20
2019-03-13T11:13:01.439Z,8.30
2019-03-13T11:16:37.932Z,8.20
2019-03-13T11:19:53.844Z,8.10
2019-03-13T11:23:21.467Z,8.00
2019-03-13T11:26:55.010Z,7.70
2019-03-13T11:30:45.063Z,7.60
2019-03-13T11:34:02.426Z,7.40
2019-03-13T11:37:38.033Z,7.40
2019-03-13T11:41:35.653Z,7.50
2019-03-13T11:45:24.429Z,7.50
2019-03-13T11:48:54.923Z,7.60
2019-03-13T11:52:45.481Z,7.60
2019-03-13T11:56:05.580Z,7.70
2019-03-13T11:59:36.195Z,7.70
2019-03-13T12:02:58.053Z,7.60
2019-03-13T12:06:36.385Z,7.70
2019-03-13T12:10:02.786Z,7.60
2019-03-13T12:13:42.769Z,7.70
2019-03-13T12:17:09.071Z,7.60
2019-03-13T12:20:59.406Z,7.70
2019-03-13T12:24:23.134Z,7.80
2019-03-13T12:27:39.591Z,7.80
2019-03-13T12:31:09.424Z,7.80
2019-03-13T12:34:41.037Z,7.90
2019-03-13T12:38:26.743Z,8.00
2019-03-13T12:41:44.942Z,8.10
2019-03-13T12:45:07.698Z,8.10
2019-03-13T12:48:37.953Z,8.20
2019-03-13T12:52:15.292Z,8.40
2019-03-13T12:55:41.377Z,8.50
2019-03-13T12:58:56.536Z,8.60
2019-03-13T13:02:12.907Z,8.70
2019-03-13T13:05:41.374Z,8.80
2019-03-13T13:09:13.781Z,8.80
2019-03-13T13:12:46.368Z,8.70
2019-03-13T13:16:32.790Z,8.70
2019-03-13T13:19:44.405Z,8.70
2019-03-13T13:22:54.464Z,8.60
2019-03-13T13:26:03.119Z,8.60
2019-03-13T13:29:11.650Z,8.60
2019-03-13T13:32:20.208Z,8.60
2019-03-13T13:35:28.823Z,8.70
2019-03-13T13:38:37.529Z,8.70
2019-03-13T13:41:56.354Z,8.80
2019-03-13T13:45:06.322Z,8.70
2019-03-13T13:48:15.052Z,8.80
2019-03-13T13:51:23.657Z,8.90
2019-03-13T13:54:32.268Z,9.00
2019-03-13T13:57:40.931Z,9.00
2019-03-13T14:00:59.696Z,9.00
2019-03-13T14:04:08.184Z,8.90
2019-03-13T14:07:16.775Z,8.90
2019-03-13T14:10:25.387Z,8.90
2019-03-13T14:13:33.983Z,8.90
2019-03-13T14:16:52.734Z,8.90
2019-03-13T14:20:01.228Z,8.90
2019-03-13T14:23:09.959Z,9.00
2019-03-13T14:26:18.566Z,9.00
2019-03-13T14:29:27.207Z,9.00
2019-03-13T14:32:35.779Z,9.00
2019-03-13T14:35:46.352Z,9.00
2019-03-13T14:39:07.719Z,8.90
2019-03-13T14:42:16.201Z,8.90
2019-03-13T14:45:24.822Z,8.70
2019-03-13T14:48:33.400Z,8.70
2019-03-13T14:51:52.287Z,8.60
2019-03-13T14:55:00.959Z,8.60
2019-03-13T14:58:09.545Z,8.60
2019-03-13T15:01:18.183Z,8.50
2019-03-13T15:04:26.948Z,8.50
2019-03-13T15:07:35.577Z,8.40
2019-03-13T15:10:44.180Z,8.40
2019-03-13T15:13:52.818Z,8.30
2019-03-13T15:17:11.642Z,8.10
2019-03-13T15:20:20.308Z,8.00
2019-03-13T15:23:28.902Z,7.70
2019-03-13T15:26:37.501Z,7.60
2019-03-13T15:29:46.093Z,7.60
2019-03-13T15:32:54.663Z,7.50
2019-03-13T15:36:03.318Z,7.30
2019-03-13T15:39:22.281Z,7.20
2019-03-13T15:42:30.887Z,7.20
2019-03-13T15:45:39.559Z,7.20
2019-03-13T15:48:48.147Z,7.20
2019-03-13T15:51:56.741Z,7.30
2019-03-13T15:55:05.690Z,7.30
2019-03-13T15:58:14.200Z,7.40
2019-03-13T16:01:22.767Z,7.40
2019-03-13T16:04:41.549Z,7.40
2019-03-13T16:07:50.192Z,7.40
2019-03-13T16:10:58.814Z,7.40
2019-03-13T16:14:07.404Z,7.50
2019-03-13T16:17:16.009Z,7.50
2019-03-13T16:20:24.582Z,7.40
2019-03-13T16:23:33.182Z,7.40
2019-03-13T16:26:52.095Z,7.40
2019-03-13T16:30:00.692Z,7.40
2019-03-13T16:33:09.450Z,7.40
2019-03-13T16:36:18.049Z,7.40
2019-03-13T16:39:26.690Z,7.40
2019-03-13T16:42:35.285Z,7.30
2019-03-13T16:45:43.862Z,7.30
2019-03-13T16:49:03.159Z,7.30
2019-03-13T16:52:11.917Z,7.20
2019-03-13T16:55:30.799Z,7.20
2019-03-13T16:58:39.971Z,7.20
2019-03-13T17:01:48.573Z,7.10
2019-03-13T17:04:57.149Z,7.20
2019-03-13T17:08:07.317Z,7.10
2019-03-13T17:11:15.967Z,7.00
2019-03-13T17:14:24.573Z,7.10
2019-03-13T17:17:33.202Z,7.00
2019-03-13T17:20:41.989Z,7.00
2019-03-13T17:23:50.596Z,7.00
2019-03-13T17:27:09.365Z,6.90
2019-03-13T17:30:24.740Z,6.80
2019-03-13T17:33:33.275Z,6.80
2019-03-13T17:36:41.854Z,6.80
2019-03-13T17:39:50.456Z,6.70
2019-03-13T17:42:59.131Z,6.70
2019-03-13T17:46:07.846Z,6.80
2019-03-13T17:49:16.557Z,6.80
2019-03-13T17:52:25.199Z,6.80
2019-03-13T17:55:43.930Z,6.80
2019-03-13T17:58:52.646Z,6.80
2019-03-13T18:02:01.272Z,6.80
2019-03-13T18:05:10.580Z,6.90
2019-03-13T18:08:20.929Z,6.90
2019-03-13T18:11:29.656Z,6.90
2019-03-13T18:14:38.236Z,6.90
2019-03-13T18:17:47.182Z,6.80
2019-03-13T18:20:55.783Z,6.90
2019-03-13T18:24:05.470Z,6.90
2019-03-13T18:27:14.065Z,6.90
2019-03-13T18:30:33.009Z,6.90
2019-03-13T18:33:41.726Z,6.90
2019-03-13T18:36:57.341Z,6.90
2019-03-13T18:40:16.852Z,7.00
2019-03-13T18:43:35.636Z,7.00
2019-03-13T18:46:44.229Z,6.90
2019-03-13T18:49:52.807Z,6.90
2019-03-13T18:53:01.378Z,6.90
2019-03-13T18:56:09.898Z,6.90
2019-03-13T18:59:28.582Z,6.90
2019-03-13T19:02:37.158Z,6.90
2019-03-13T19:05:45.766Z,6.90
2019-03-13T19:08:54.359Z,6.90
2019-03-13T19:12:02.962Z,6.90
2019-03-13T19:15:15.327Z,6.90
2019-03-13T19:18:23.803Z,6.90
2019-03-13T19:21:32.430Z,6.90
2019-03-13T19:24:41.170Z,6.90
2019-03-13T19:28:00.275Z,6.90
2019-03-13T19:31:19.288Z,7.00
2019-03-13T19:34:27.851Z,7.00
2019-03-13T19:37:36.459Z,7.00
2019-03-13T19:40:45.226Z,7.00
2019-03-13T19:43:53.708Z,7.00
2019-03-13T19:47:02.354Z,7.00
2019-03-13T19:50:11.886Z,7.00
2019-03-13T19:53:20.648Z,7.00
2019-03-13T19:56:29.328Z,7.10
2019-03-13T19:59:37.907Z,7.10
2019-03-13T20:02:59.094Z,7.10
2019-03-13T20:05:56.962Z,7.10
2019-03-13T20:09:06.600Z,7.10
2019-03-13T20:12:15.091Z,7.10
2019-03-13T20:15:24.653Z,7.10
2019-03-13T20:18:43.456Z,7.20
2019-03-13T20:21:52.032Z,7.10
2019-03-13T20:25:00.611Z,7.10
2019-03-13T20:28:09.526Z,7.20
2019-03-13T20:31:18.027Z,7.20
2019-03-13T20:34:26.598Z,7.20
2019-03-13T20:37:35.300Z,7.20
2019-03-13T20:40:43.875Z,7.20
2019-03-13T20:44:02.792Z,7.20
2019-03-13T20:47:12.612Z,7.30
2019-03-13T20:50:35.165Z,7.30
2019-03-13T20:53:31.735Z,7.30
2019-03-13T20:56:40.315Z,7.40
2019-03-13T20:59:48.926Z,7.40
2019-03-13T21:03:08.546Z,7.40
2019-03-13T21:06:17.163Z,7.40
2019-03-13T21:09:25.769Z,7.40
2019-03-13T21:12:34.337Z,7.40
2019-03-13T21:15:43.930Z,7.40
2019-03-13T21:19:02.925Z,7.40
2019-03-13T21:22:11.415Z,7.40
2019-03-13T21:25:20.054Z,7.40
2019-03-13T21:28:28.737Z,7.40
2019-03-13T21:31:37.456Z,7.40
2019-03-13T21:34:46.058Z,7.30
2019-03-13T21:37:56.031Z,7.30
2019-03-13T21:41:07.642Z,7.40
2019-03-13T21:44:16.740Z,7.40
2019-03-13T21:47:25.621Z,7.40
2019-03-13T21:50:45.505Z,7.50
2019-03-13T21:53:54.703Z,7.40
2019-03-13T21:57:02.961Z,7.50
2019-03-13T22:00:23.362Z,7.50
2019-03-13T22:03:32.680Z,7.40
2019-03-13T22:06:51.546Z,7.40
2019-03-13T22:10:00.049Z,7.40
2019-03-13T22:13:08.701Z,7.40
2019-03-13T22:16:17.347Z,7.40
2019-03-13T22:19:25.873Z,7.40
2019-03-13T22:22:34.355Z,7.40
2019-03-13T22:25:53.196Z,7.40
2019-03-13T22:29:01.718Z,7.30
2019-03-13T22:32:10.219Z,7.30
2019-03-13T22:35:18.847Z,7.30
2019-03-13T22:38:27.465Z,7.30
2019-03-13T22:41:36.828Z,7.30
2019-03-13T22:44:45.446Z,7.30
2019-03-13T22:47:54.014Z,7.20
2019-03-13T22:51:02.642Z,7.20
2019-03-13T22:54:11.237Z,7.20
2019-03-13T22:57:30.433Z,7.20
2019-03-13T23:00:59.637Z,7.20
2019-03-13T23:04:08.485Z,7.20
2019-03-13T23:07:17.029Z,7.20
2019-03-13T23:10:33.763Z,7.20
2019-03-13T23:13:42.231Z,7.20
2019-03-13T23:17:01.015Z,7.20
2019-03-13T23:20:09.618Z,7.20
2019-03-13T23:23:18.241Z,7.20
2019-03-13T23:26:26.855Z,7.20
2019-03-13T23:29:35.373Z,7.20
2019-03-13T23:32:43.996Z,7.20
2019-03-13T23:36:02.771Z,7.20
2019-03-13T23:39:11.864Z,7.20
2019-03-13T23:42:30.821Z,7.20
2019-03-13T23:45:39.663Z,7.20
2019-03-13T23:48:46.687Z,7.20
2019-03-13T23:51:55.199Z,7.20
2019-03-13T23:55:03.928Z,7.20
2019-03-13T23:58:12.734Z,7.20
